Aberdeen, Washington
Current Conditions -  °F | °C
As of 9:53 AM on Thursday 29 Jan 2015 (Local Time) from KHQM Reporting Station
Clear Clear  
Wind Chill: 41°   Ceiling: Unl
Heat Index: 47°   Visibility: 7mi
Dew Point: 42°   Wind: 13mph
Humidity: 83%   Direction: 80°E
Pressure: 30.32"   Gusts: NA
Location:  46.98°N, 123.81°W
Report Text: KHQM 291753Z AUTO 08011KT 7SM CLR 08/06 A3032 RMK AO2 SLP271 T00830056 10083 20056 50002 $
Loading
Personal Weather Stations






























Interactive Weather Map New forecast layout! Learn more

10-Day Weather Forecast

Advertisements
Track Severe Weather on mobile